Terminal Aerodrome Forecast
Issued by NWS

Home | Current Version | Previous Version | Graphics & Text | Print | Product List | Glossary On
Versions: 1 2 3 4 5 6 7 8 9 10 11 12 13 14 15 16
000
FTUS43 KIWX 242339
TAFSBN
TAF
KSBN 242339Z 2500/2524 29010KT P6SM BKN050
     FM250800 28005KT P6SM BKN035
     FM251500 30012G18KT P6SM BKN040=

USA.gov is the U.S. government's official web portal to all federal, state and local government web resources and services.